createdAt,value
2022-12-15T00:01:20.592Z,35.03
2022-12-15T00:04:05.011Z,38.28
2022-12-15T00:06:49.311Z,35.83
2022-12-15T00:09:33.725Z,37.25
2022-12-15T00:12:18.583Z,39.72
2022-12-15T00:15:03.100Z,35.78
2022-12-15T00:17:47.296Z,37.38
2022-12-15T00:20:31.938Z,38.45
2022-12-15T00:23:16.386Z,36.20
2022-12-15T00:26:04.083Z,41.10
2022-12-15T00:28:48.301Z,34.90
2022-12-15T00:31:32.862Z,39.25
2022-12-15T00:34:17.332Z,36.05
2022-12-15T00:37:01.525Z,34.78
2022-12-15T00:39:27.310Z,34.17
2022-12-15T00:41:53.124Z,36.95
2022-12-15T00:44:20.872Z,36.50
2022-12-15T00:46:55.924Z,29.88
2022-12-15T00:49:42.569Z,35.67
2022-12-15T00:52:27.959Z,29.92
2022-12-15T00:55:12.663Z,32.38
2022-12-15T00:57:57.469Z,33.28
2022-12-15T01:00:42.378Z,33.38
2022-12-15T01:03:29.787Z,37.47
2022-12-15T01:06:14.551Z,33.25
2022-12-15T01:08:59.131Z,34.80
2022-12-15T01:11:43.501Z,35.95
2022-12-15T01:14:27.965Z,36.70
2022-12-15T01:17:12.502Z,35.72
2022-12-15T01:19:56.915Z,37.50
2022-12-15T01:22:22.971Z,32.20
2022-12-15T01:24:48.740Z,44.85
2022-12-15T01:27:14.834Z,36.20
2022-12-15T01:29:40.681Z,36.80
2022-12-15T01:32:06.887Z,37.58
2022-12-15T01:34:32.660Z,46.85
2022-12-15T01:36:58.524Z,46.40
2022-12-15T01:39:24.449Z,42.58
2022-12-15T01:41:50.281Z,45.72
2022-12-15T01:44:22.693Z,42.40
2022-12-15T01:46:52.506Z,37.20
2022-12-15T01:49:25.894Z,60.72
2022-12-15T01:51:58.068Z,44.15
2022-12-15T01:54:28.064Z,40.80
2022-12-15T01:56:59.169Z,43.10
2022-12-15T01:59:32.482Z,50.08
2022-12-15T02:01:58.483Z,54.42
2022-12-15T02:04:24.592Z,47.92
2022-12-15T02:06:52.333Z,64.57
2022-12-15T02:09:20.952Z,45.25
2022-12-15T02:12:08.159Z,41.08
2022-12-15T02:14:58.225Z,41.10
2022-12-15T02:17:36.533Z,53.63
2022-12-15T02:20:27.461Z,40.40
2022-12-15T02:23:21.086Z,41.55
2022-12-15T02:25:52.515Z,44.72
2022-12-15T02:28:36.981Z,40.75
2022-12-15T02:31:36.415Z,41.08
2022-12-15T02:34:13.915Z,37.63
2022-12-15T02:36:43.955Z,40.50
2022-12-15T02:39:13.412Z,39.20
2022-12-15T02:41:42.064Z,39.78
2022-12-15T02:44:11.406Z,38.65
2022-12-15T02:46:45.208Z,37.97
2022-12-15T02:49:29.283Z,40.53
2022-12-15T02:52:12.863Z,38.88
2022-12-15T02:55:10.765Z,37.83
2022-12-15T02:58:01.232Z,37.22
2022-12-15T03:00:30.259Z,39.70
2022-12-15T03:02:56.436Z,40.67
2022-12-15T03:05:24.148Z,37.70
2022-12-15T03:07:52.216Z,40.10
2022-12-15T03:10:21.222Z,36.30
2022-12-15T03:12:47.031Z,36.10
2022-12-15T03:15:13.112Z,37.83
2022-12-15T03:17:39.112Z,34.83
2022-12-15T03:20:05.439Z,35.22
2022-12-15T03:22:31.301Z,34.53
2022-12-15T03:24:57.426Z,40.17
2022-12-15T03:27:23.273Z,39.55
2022-12-15T03:29:49.160Z,35.90
2022-12-15T03:32:15.075Z,39.90
2022-12-15T03:34:41.193Z,38.58
2022-12-15T03:37:07.234Z,35.55
2022-12-15T03:39:33.326Z,40.95
2022-12-15T03:41:59.192Z,34.03
2022-12-15T03:44:25.140Z,32.95
2022-12-15T03:46:50.884Z,33.83
2022-12-15T03:49:16.735Z,35.15
2022-12-15T03:51:42.507Z,41.53
2022-12-15T03:54:08.286Z,35.00
2022-12-15T03:56:34.116Z,36.80
2022-12-15T03:58:59.958Z,36.63
2022-12-15T04:01:31.367Z,34.38
2022-12-15T04:04:00.882Z,32.95
2022-12-15T04:06:28.205Z,33.10
2022-12-15T04:08:54.062Z,31.63
2022-12-15T04:11:19.864Z,33.30
2022-12-15T04:13:45.765Z,33.10
2022-12-15T04:16:14.795Z,33.63
2022-12-15T04:18:43.669Z,30.10
2022-12-15T04:21:09.456Z,34.17
2022-12-15T04:23:35.194Z,41.20
2022-12-15T04:26:19.671Z,36.83
2022-12-15T04:29:03.953Z,38.70
2022-12-15T04:31:50.876Z,36.08
2022-12-15T04:34:41.533Z,34.13
2022-12-15T04:37:30.381Z,35.78
2022-12-15T04:40:15.123Z,32.55
2022-12-15T04:43:03.519Z,33.13
2022-12-15T04:45:47.935Z,31.95
2022-12-15T04:48:32.212Z,32.83
2022-12-15T04:51:16.666Z,33.53
2022-12-15T04:54:02.622Z,35.22
2022-12-15T04:56:47.083Z,38.47
2022-12-15T04:59:34.948Z,32.42
2022-12-15T05:02:19.440Z,32.97
2022-12-15T05:05:03.717Z,32.50
2022-12-15T05:07:48.158Z,30.83
2022-12-15T05:10:32.547Z,27.10
2022-12-15T05:13:24.232Z,25.55
2022-12-15T05:16:08.556Z,23.25
2022-12-15T05:18:52.810Z,27.67
2022-12-15T05:21:37.092Z,31.30
2022-12-15T05:24:21.462Z,28.55
2022-12-15T05:27:05.865Z,30.23
2022-12-15T05:29:50.313Z,30.30
2022-12-15T05:32:16.574Z,33.95
2022-12-15T05:34:42.389Z,33.40
2022-12-15T05:37:08.250Z,28.38
2022-12-15T05:39:34.206Z,29.58
2022-12-15T05:42:00.448Z,32.88
2022-12-15T05:44:27.917Z,28.50
2022-12-15T05:46:53.823Z,27.48
2022-12-15T05:49:20.141Z,26.80
2022-12-15T05:51:47.192Z,41.38
2022-12-15T05:54:15.593Z,33.22
2022-12-15T05:56:41.461Z,32.28
2022-12-15T05:59:07.716Z,27.27
2022-12-15T06:01:34.721Z,28.25
2022-12-15T06:04:01.198Z,30.90
2022-12-15T06:06:27.837Z,32.30
2022-12-15T06:08:53.842Z,30.00
2022-12-15T06:11:21.458Z,32.85
2022-12-15T06:13:48.101Z,29.70
2022-12-15T06:16:21.847Z,27.75
2022-12-15T06:18:50.681Z,28.77
2022-12-15T06:21:19.543Z,32.67
2022-12-15T06:23:47.246Z,28.98
2022-12-15T06:26:13.527Z,26.90
2022-12-15T06:28:39.953Z,31.17
2022-12-15T06:31:08.171Z,30.50
2022-12-15T06:33:34.718Z,27.67
2022-12-15T06:36:06.637Z,24.20
2022-12-15T06:38:33.185Z,26.20
2022-12-15T06:41:00.132Z,23.35
2022-12-15T06:43:26.877Z,26.88
2022-12-15T06:45:52.952Z,26.80
2022-12-15T06:48:21.865Z,27.75
2022-12-15T06:50:50.376Z,28.73
2022-12-15T06:53:18.524Z,23.15
2022-12-15T06:55:44.796Z,26.25
2022-12-15T06:58:11.712Z,23.08
2022-12-15T07:00:41.235Z,25.88
2022-12-15T07:03:16.909Z,24.45
2022-12-15T07:05:44.242Z,28.02
2022-12-15T07:08:11.515Z,24.95
2022-12-15T07:10:41.791Z,24.67
2022-12-15T07:13:11.826Z,22.70
2022-12-15T07:15:38.187Z,20.00
2022-12-15T07:18:04.575Z,26.88
2022-12-15T07:20:30.588Z,31.67
2022-12-15T07:22:56.515Z,23.73
2022-12-15T07:25:22.891Z,22.33
2022-12-15T07:27:48.946Z,23.08
2022-12-15T07:30:16.982Z,17.17
2022-12-15T07:32:43.603Z,23.75
2022-12-15T07:35:16.021Z,25.52
2022-12-15T07:37:41.833Z,20.80
2022-12-15T07:40:08.099Z,18.70
2022-12-15T07:42:33.825Z,19.08
2022-12-15T07:44:59.656Z,19.90
2022-12-15T07:47:27.169Z,19.25
2022-12-15T07:49:54.028Z,22.60
2022-12-15T07:52:20.336Z,24.27
2022-12-15T07:54:46.092Z,19.73
2022-12-15T07:57:12.005Z,18.48
2022-12-15T07:59:37.831Z,16.48
2022-12-15T08:02:04.180Z,15.57
2022-12-15T08:04:30.791Z,15.88
2022-12-15T08:06:57.597Z,20.42
2022-12-15T08:09:24.617Z,19.15
2022-12-15T08:11:50.464Z,18.27
2022-12-15T08:14:18.295Z,15.95
2022-12-15T08:16:45.095Z,14.30
2022-12-15T08:19:13.076Z,16.10
2022-12-15T08:21:39.792Z,15.77
2022-12-15T08:24:07.394Z,16.52
2022-12-15T08:26:33.835Z,13.15
2022-12-15T08:29:40.370Z,13.10
2022-12-15T08:31:53.320Z,14.57
2022-12-15T08:34:19.360Z,12.45
2022-12-15T08:36:45.222Z,15.23
2022-12-15T08:39:11.033Z,14.55
2022-12-15T08:41:36.965Z,13.70
2022-12-15T08:44:03.086Z,13.20
2022-12-15T08:46:33.721Z,11.60
2022-12-15T08:49:02.769Z,13.80
2022-12-15T08:51:30.462Z,12.27
2022-12-15T08:53:59.133Z,13.68
2022-12-15T08:56:26.129Z,11.57
2022-12-15T08:59:01.863Z,9.65
2022-12-15T09:01:31.027Z,8.35
2022-12-15T09:03:58.856Z,8.60
2022-12-15T09:06:29.271Z,8.32
2022-12-15T09:08:59.905Z,7.00
2022-12-15T09:11:28.100Z,8.88
2022-12-15T09:13:54.160Z,7.72
2022-12-15T09:16:20.993Z,5.90
2022-12-15T09:18:50.896Z,6.70
2022-12-15T09:21:18.362Z,8.88
2022-12-15T09:23:49.832Z,8.32
2022-12-15T09:26:15.588Z,9.68
2022-12-15T09:28:42.474Z,8.75
2022-12-15T09:31:11.429Z,8.95
2022-12-15T09:33:37.999Z,7.60
2022-12-15T09:36:05.212Z,9.13
2022-12-15T09:38:33.496Z,7.50
2022-12-15T09:41:07.642Z,7.60
2022-12-15T09:43:34.961Z,7.15
2022-12-15T09:46:22.624Z,8.50
2022-12-15T09:48:50.972Z,8.88
2022-12-15T09:51:18.691Z,10.88
2022-12-15T09:53:54.700Z,11.93
2022-12-15T09:56:29.971Z,13.00
2022-12-15T09:59:24.353Z,12.87
2022-12-15T10:02:03.228Z,11.55
2022-12-15T10:04:45.769Z,15.25
2022-12-15T10:07:42.985Z,11.55
2022-12-15T10:10:23.083Z,10.07
2022-12-15T10:13:01.720Z,11.10
2022-12-15T10:15:54.255Z,35.92
2022-12-15T10:18:24.963Z,59.80
2022-12-15T10:21:00.981Z,56.42
2022-12-15T10:23:26.791Z,48.97
2022-12-15T10:26:15.216Z,27.77
2022-12-15T10:29:01.390Z,26.70
2022-12-15T10:31:38.704Z,31.98
2022-12-15T10:34:10.564Z,30.52
2022-12-15T10:36:36.684Z,33.65
2022-12-15T10:39:02.653Z,28.58
2022-12-15T10:41:32.106Z,24.13
2022-12-15T10:43:57.909Z,20.88
2022-12-15T10:46:26.657Z,20.63
2022-12-15T10:48:56.787Z,16.20
2022-12-15T10:51:44.576Z,15.75
2022-12-15T10:54:15.400Z,14.40
2022-12-15T10:56:55.713Z,13.48
2022-12-15T10:59:35.653Z,14.30
2022-12-15T11:02:25.643Z,14.07
2022-12-15T11:05:15.382Z,44.13
2022-12-15T11:07:50.478Z,43.88
2022-12-15T11:10:24.900Z,28.42
2022-12-15T11:12:58.741Z,19.63
2022-12-15T11:15:30.482Z,14.60
2022-12-15T11:18:24.189Z,17.80
2022-12-15T11:20:55.450Z,16.15
2022-12-15T11:23:36.323Z,32.97
2022-12-15T11:26:22.396Z,34.97
2022-12-15T11:28:55.530Z,20.65
2022-12-15T11:31:37.569Z,21.60
2022-12-15T11:34:12.444Z,16.95
2022-12-15T11:36:51.770Z,15.75
2022-12-15T11:39:36.571Z,16.92
2022-12-15T11:44:58.615Z,15.73
2022-12-15T11:47:30.171Z,15.98
2022-12-15T11:50:13.760Z,16.42
2022-12-15T11:53:04.073Z,18.13
2022-12-15T11:55:57.853Z,12.85
2022-12-15T11:58:53.295Z,11.90
2022-12-15T12:01:26.591Z,12.02
2022-12-15T12:04:13.391Z,15.68
2022-12-15T12:07:04.089Z,13.20
2022-12-15T12:09:36.619Z,10.73
2022-12-15T12:12:21.610Z,11.38
2022-12-15T12:15:09.450Z,10.05
2022-12-15T12:18:21.046Z,10.82
2022-12-15T12:20:55.800Z,11.25
2022-12-15T12:23:27.434Z,12.40
2022-12-15T12:26:23.468Z,12.10
2022-12-15T12:31:32.085Z,9.75
2022-12-15T12:34:05.638Z,8.55
2022-12-15T12:36:31.429Z,8.18
2022-12-15T12:38:57.825Z,8.15
2022-12-15T12:41:45.636Z,9.02
2022-12-15T12:44:32.902Z,8.93
2022-12-15T12:50:03.029Z,9.65
2022-12-15T12:52:36.747Z,7.38
2022-12-15T12:55:28.242Z,7.70
2022-12-15T12:57:54.988Z,7.90
2022-12-15T13:00:27.820Z,8.07
2022-12-15T13:02:55.332Z,9.43
2022-12-15T13:05:31.719Z,8.55
2022-12-15T13:08:07.194Z,8.60
2022-12-15T13:10:41.772Z,8.18
2022-12-15T13:13:30.583Z,8.27
2022-12-15T13:16:31.056Z,7.20
2022-12-15T13:19:14.793Z,8.48
2022-12-15T13:21:40.873Z,10.70
2022-12-15T13:24:45.938Z,10.57
2022-12-15T13:27:16.395Z,10.43
2022-12-15T13:30:06.554Z,9.95
2022-12-15T13:32:39.706Z,10.85
2022-12-15T13:35:11.228Z,11.98
2022-12-15T13:37:55.157Z,9.30
2022-12-15T13:40:37.067Z,10.73
2022-12-15T13:43:02.856Z,10.68
2022-12-15T13:45:35.679Z,17.75
2022-12-15T13:48:12.728Z,11.52
2022-12-15T13:50:51.238Z,9.43
2022-12-15T13:53:21.069Z,12.13
2022-12-15T13:56:33.909Z,11.73
2022-12-15T13:59:24.717Z,12.32
2022-12-15T14:01:52.133Z,12.60
2022-12-15T14:04:18.214Z,16.02
2022-12-15T14:06:53.015Z,15.13
2022-12-15T14:09:23.380Z,14.38
2022-12-15T14:11:54.313Z,16.85
2022-12-15T14:14:30.768Z,15.40
2022-12-15T14:17:00.558Z,17.58
2022-12-15T14:19:38.455Z,14.43
2022-12-15T14:22:27.152Z,14.77
2022-12-15T14:25:17.693Z,13.98
2022-12-15T14:27:43.558Z,12.10
2022-12-15T14:30:18.882Z,10.73
2022-12-15T14:32:48.299Z,12.07
2022-12-15T14:35:44.042Z,12.02
2022-12-15T14:38:26.020Z,28.23
2022-12-15T14:40:55.900Z,13.05
2022-12-15T14:43:29.158Z,13.43
2022-12-15T14:46:07.438Z,18.35
2022-12-15T14:48:41.819Z,24.90
2022-12-15T14:51:10.732Z,39.92
2022-12-15T14:53:39.171Z,23.08
2022-12-15T14:56:29.365Z,21.70
2022-12-15T14:59:18.731Z,21.50
2022-12-15T15:02:02.183Z,21.77
2022-12-15T15:04:33.359Z,20.40
2022-12-15T15:07:05.822Z,19.15
2022-12-15T15:09:40.639Z,24.38
2022-12-15T15:12:13.028Z,18.67
2022-12-15T15:14:51.114Z,20.38
2022-12-15T15:17:24.057Z,20.38
2022-12-15T15:20:02.366Z,16.17
2022-12-15T15:22:42.684Z,21.08
2022-12-15T15:25:36.223Z,23.23
2022-12-15T15:28:17.531Z,17.77
2022-12-15T15:30:44.769Z,22.27
2022-12-15T15:33:12.764Z,18.40
2022-12-15T15:35:40.945Z,24.08
2022-12-15T15:38:14.020Z,15.93
2022-12-15T15:40:39.838Z,15.25
2022-12-15T15:43:16.354Z,12.20
2022-12-15T15:45:42.674Z,9.07
2022-12-15T15:48:16.567Z,12.50
2022-12-15T15:50:43.898Z,8.65
2022-12-15T15:53:18.835Z,8.20
2022-12-15T15:55:46.419Z,10.63
2022-12-15T15:58:12.752Z,11.98
2022-12-15T16:00:39.445Z,13.75
2022-12-15T16:03:06.096Z,24.33
2022-12-15T16:05:32.315Z,29.73
2022-12-15T16:07:59.941Z,38.92
2022-12-15T16:10:26.149Z,40.67
2022-12-15T16:12:54.905Z,32.80
2022-12-15T16:15:25.204Z,24.75
2022-12-15T16:17:52.520Z,20.42
2022-12-15T16:20:21.493Z,18.30
2022-12-15T16:22:51.595Z,14.93
2022-12-15T16:25:37.381Z,15.07
2022-12-15T16:28:14.020Z,14.32
2022-12-15T16:30:40.928Z,13.50
2022-12-15T16:33:07.007Z,13.73
2022-12-15T16:35:32.996Z,13.10
2022-12-15T16:37:58.835Z,13.18
2022-12-15T16:40:26.895Z,13.50
2022-12-15T16:43:00.758Z,15.25
2022-12-15T16:45:29.906Z,10.27
2022-12-15T16:47:57.147Z,14.95
2022-12-15T16:50:33.460Z,13.68
2022-12-15T16:53:00.562Z,11.57
2022-12-15T16:55:28.560Z,23.00
2022-12-15T16:58:00.769Z,10.52
2022-12-15T17:00:33.488Z,18.27
2022-12-15T17:03:00.549Z,11.18
2022-12-15T17:05:31.354Z,10.60
2022-12-15T17:08:00.073Z,13.32
2022-12-15T17:10:28.673Z,15.48
2022-12-15T17:13:06.197Z,15.85
2022-12-15T17:15:32.430Z,11.43
2022-12-15T17:17:58.244Z,13.27
2022-12-15T17:20:29.762Z,13.50
2022-12-15T17:23:03.204Z,12.23
2022-12-15T17:28:39.963Z,10.75
2022-12-15T17:31:20.435Z,16.23
2022-12-15T17:33:47.444Z,15.15
2022-12-15T17:36:20.523Z,16.35
2022-12-15T17:38:51.057Z,15.70
2022-12-15T17:41:42.317Z,11.25
2022-12-15T17:44:31.630Z,16.17
2022-12-15T17:46:48.946Z,15.35
2022-12-15T17:49:14.871Z,14.00
2022-12-15T17:51:42.859Z,15.38
2022-12-15T17:54:13.305Z,16.98
2022-12-15T17:56:41.152Z,19.52
2022-12-15T17:59:14.824Z,17.20
2022-12-15T18:01:42.309Z,17.77
2022-12-15T18:04:09.460Z,20.40
2022-12-15T18:06:37.033Z,16.83
2022-12-15T18:09:03.396Z,18.10
2022-12-15T18:11:30.079Z,15.77
2022-12-15T18:13:56.318Z,15.43
2022-12-15T18:16:22.240Z,15.68
2022-12-15T18:18:48.168Z,19.25
2022-12-15T18:21:16.003Z,18.55
2022-12-15T18:23:42.742Z,41.33
2022-12-15T18:26:12.590Z,21.05
2022-12-15T18:28:38.678Z,26.45
2022-12-15T18:31:26.081Z,20.17
2022-12-15T18:33:59.497Z,54.40
2022-12-15T18:36:28.526Z,52.53
2022-12-15T18:38:54.302Z,52.10
2022-12-15T18:41:20.852Z,47.47
2022-12-15T18:43:57.857Z,41.85
2022-12-15T18:46:24.415Z,45.65
2022-12-15T18:48:50.341Z,38.58
2022-12-15T18:51:19.553Z,32.03
2022-12-15T18:53:47.146Z,31.70
2022-12-15T18:56:15.100Z,26.00
2022-12-15T18:58:41.242Z,22.30
2022-12-15T19:01:07.921Z,27.95
2022-12-15T19:03:35.818Z,21.77
2022-12-15T19:06:34.181Z,20.42
2022-12-15T19:09:02.880Z,21.20
2022-12-15T19:11:30.409Z,17.13
2022-12-15T19:13:58.093Z,17.45
2022-12-15T19:16:24.427Z,22.42
2022-12-15T19:19:15.425Z,17.30
2022-12-15T19:22:01.948Z,16.02
2022-12-15T19:24:48.708Z,16.48
2022-12-15T19:27:19.596Z,14.45
2022-12-15T19:29:46.493Z,19.52
2022-12-15T19:32:12.634Z,13.98
2022-12-15T19:34:39.298Z,13.52
2022-12-15T19:37:11.762Z,15.00
2022-12-15T19:39:38.433Z,12.10
2022-12-15T19:42:13.098Z,11.13
2022-12-15T19:44:39.256Z,8.95
2022-12-15T19:47:12.811Z,19.83
2022-12-15T19:49:40.256Z,17.55
2022-12-15T19:52:15.025Z,16.60
2022-12-15T19:54:42.864Z,12.95
2022-12-15T19:57:13.579Z,11.57
2022-12-15T19:59:39.942Z,11.73
2022-12-15T20:02:06.542Z,13.13
2022-12-15T20:04:33.332Z,11.65
2022-12-15T20:07:03.500Z,8.43
2022-12-15T20:09:29.604Z,7.75
2022-12-15T20:11:55.529Z,10.18
2022-12-15T20:14:21.628Z,8.73
2022-12-15T20:16:49.600Z,11.50
2022-12-15T20:19:15.535Z,17.92
2022-12-15T20:21:41.500Z,12.25
2022-12-15T20:24:13.314Z,13.50
2022-12-15T20:26:39.851Z,12.85
2022-12-15T20:29:19.826Z,12.57
2022-12-15T20:31:45.634Z,11.10
2022-12-15T20:34:11.649Z,14.88
2022-12-15T20:36:38.143Z,10.45
2022-12-15T20:39:04.316Z,10.05
2022-12-15T20:41:30.116Z,11.63
2022-12-15T20:43:57.170Z,9.48
2022-12-15T20:46:26.144Z,10.50
2022-12-15T20:48:54.362Z,10.80
2022-12-15T20:51:26.355Z,14.05
2022-12-15T20:53:55.534Z,10.10
2022-12-15T20:56:22.486Z,10.45
2022-12-15T20:58:52.908Z,9.57
2022-12-15T21:01:28.156Z,11.07
2022-12-15T21:03:56.777Z,7.70
2022-12-15T21:06:24.515Z,11.82
2022-12-15T21:08:51.047Z,13.20
2022-12-15T21:11:19.085Z,10.02
2022-12-15T21:13:46.845Z,9.73
2022-12-15T21:16:18.873Z,9.52
2022-12-15T21:21:38.137Z,11.63
2022-12-15T21:24:15.594Z,13.10
2022-12-15T21:26:41.889Z,13.95
2022-12-15T21:29:17.405Z,15.18
2022-12-15T21:34:09.220Z,13.52
2022-12-15T21:36:36.730Z,13.15
2022-12-15T21:39:05.042Z,12.82
2022-12-15T21:41:31.264Z,16.83
2022-12-15T21:43:57.094Z,13.05
2022-12-15T21:46:28.053Z,14.23
2022-12-15T21:49:16.779Z,12.45
2022-12-15T21:51:45.999Z,13.95
2022-12-15T21:54:25.982Z,16.70
2022-12-15T21:56:55.266Z,15.40
2022-12-15T21:59:23.369Z,11.38
2022-12-15T22:01:50.101Z,13.80
2022-12-15T22:04:20.775Z,13.55
2022-12-15T22:06:50.913Z,13.43
2022-12-15T22:09:17.827Z,16.50
2022-12-15T22:11:46.140Z,21.48
2022-12-15T22:14:29.880Z,20.83
2022-12-15T22:16:57.897Z,16.45
2022-12-15T22:19:24.150Z,18.85
2022-12-15T22:21:50.155Z,17.58
2022-12-15T22:24:16.070Z,17.52
2022-12-15T22:26:42.184Z,21.50
2022-12-15T22:29:21.878Z,15.50
2022-12-15T22:31:49.634Z,19.98
2022-12-15T22:34:20.883Z,13.20
2022-12-15T22:36:47.550Z,11.15
2022-12-15T22:39:14.271Z,13.70
2022-12-15T22:41:42.982Z,11.50
2022-12-15T22:44:20.006Z,13.40
2022-12-15T22:46:47.749Z,14.65
2022-12-15T22:49:22.674Z,11.90
2022-12-15T22:51:48.468Z,9.70
2022-12-15T22:54:20.109Z,10.60
2022-12-15T22:56:50.133Z,8.85
2022-12-15T22:59:33.638Z,10.07
2022-12-15T23:02:01.690Z,9.85
2022-12-15T23:04:28.845Z,7.82
2022-12-15T23:06:54.900Z,7.15
2022-12-15T23:09:20.838Z,6.38
2022-12-15T23:11:47.102Z,9.00
2022-12-15T23:14:17.444Z,8.70
2022-12-15T23:16:46.252Z,8.93
2022-12-15T23:19:29.977Z,10.80
2022-12-15T23:21:55.818Z,11.27
2022-12-15T23:24:21.634Z,12.48
2022-12-15T23:26:47.391Z,9.73
2022-12-15T23:29:13.569Z,11.25
2022-12-15T23:31:39.587Z,13.75
2022-12-15T23:34:05.549Z,16.98
2022-12-15T23:36:31.323Z,13.95
2022-12-15T23:38:57.657Z,14.57
2022-12-15T23:41:23.508Z,17.83
2022-12-15T23:43:49.455Z,14.93
2022-12-15T23:46:15.307Z,17.38
2022-12-15T23:48:42.913Z,19.88
2022-12-15T23:51:14.785Z,15.52
2022-12-15T23:53:41.783Z,18.67
2022-12-15T23:56:13.398Z,21.70
2022-12-15T23:58:41.154Z,14.77
